sensor_id;sensor_type;location;lat;lon;timestamp;temperature;humidity
15834;DHT22;8017;50.812;4.934;2022-10-17T00:02:58;14.10;99.90
15834;DHT22;8017;50.812;4.934;2022-10-17T00:06:05;14.10;99.90
15834;DHT22;8017;50.812;4.934;2022-10-17T00:09:07;14.10;99.90
15834;DHT22;8017;50.812;4.934;2022-10-17T00:12:10;14.10;99.90
15834;DHT22;8017;50.812;4.934;2022-10-17T00:15:14;14.10;99.90
15834;DHT22;8017;50.812;4.934;2022-10-17T00:18:18;14.10;99.90
15834;DHT22;8017;50.812;4.934;2022-10-17T00:21:20;14.10;99.90
15834;DHT22;8017;50.812;4.934;2022-10-17T00:24:22;14.10;99.90
15834;DHT22;8017;50.812;4.934;2022-10-17T00:27:24;14.00;99.90
15834;DHT22;8017;50.812;4.934;2022-10-17T00:30:25;14.00;99.90
15834;DHT22;8017;50.812;4.934;2022-10-17T00:33:29;14.00;99.90
15834;DHT22;8017;50.812;4.934;2022-10-17T00:36:31;14.00;99.90
15834;DHT22;8017;50.812;4.934;2022-10-17T00:39:34;14.00;99.90
15834;DHT22;8017;50.812;4.934;2022-10-17T00:42:36;14.00;99.90
15834;DHT22;8017;50.812;4.934;2022-10-17T00:45:38;13.90;99.90
15834;DHT22;8017;50.812;4.934;2022-10-17T00:48:41;13.90;99.90
15834;DHT22;8017;50.812;4.934;2022-10-17T00:51:46;13.90;99.90
15834;DHT22;8017;50.812;4.934;2022-10-17T00:54:54;14.00;99.90
15834;DHT22;8017;50.812;4.934;2022-10-17T00:57:59;14.00;99.90
15834;DHT22;8017;50.812;4.934;2022-10-17T01:01:03;14.00;99.90
15834;DHT22;8017;50.812;4.934;2022-10-17T01:04:06;14.00;99.90
15834;DHT22;8017;50.812;4.934;2022-10-17T01:07:08;14.10;99.90
15834;DHT22;8017;50.812;4.934;2022-10-17T01:10:11;14.20;99.90
15834;DHT22;8017;50.812;4.934;2022-10-17T01:13:20;14.20;99.90
15834;DHT22;8017;50.812;4.934;2022-10-17T01:16:31;14.10;99.90
15834;DHT22;8017;50.812;4.934;2022-10-17T01:19:51;14.10;99.90
15834;DHT22;8017;50.812;4.934;2022-10-17T01:23:12;14.10;99.90
15834;DHT22;8017;50.812;4.934;2022-10-17T01:26:24;14.10;99.90
15834;DHT22;8017;50.812;4.934;2022-10-17T01:29:46;14.30;99.90
15834;DHT22;8017;50.812;4.934;2022-10-17T01:32:55;14.40;99.90
15834;DHT22;8017;50.812;4.934;2022-10-17T01:36:02;14.60;99.90
15834;DHT22;8017;50.812;4.934;2022-10-17T01:39:14;14.90;99.90
15834;DHT22;8017;50.812;4.934;2022-10-17T01:42:18;15.00;99.90
15834;DHT22;8017;50.812;4.934;2022-10-17T01:45:26;15.20;99.90
15834;DHT22;8017;50.812;4.934;2022-10-17T01:48:35;15.30;99.90
15834;DHT22;8017;50.812;4.934;2022-10-17T01:51:40;15.50;99.90
15834;DHT22;8017;50.812;4.934;2022-10-17T01:54:45;15.60;99.90
15834;DHT22;8017;50.812;4.934;2022-10-17T01:57:50;15.70;99.90
15834;DHT22;8017;50.812;4.934;2022-10-17T02:00:53;15.90;99.90
15834;DHT22;8017;50.812;4.934;2022-10-17T02:03:59;15.90;99.90
15834;DHT22;8017;50.812;4.934;2022-10-17T02:07:05;16.00;99.90
15834;DHT22;8017;50.812;4.934;2022-10-17T02:10:11;16.00;99.90
15834;DHT22;8017;50.812;4.934;2022-10-17T02:13:21;16.10;99.90
15834;DHT22;8017;50.812;4.934;2022-10-17T02:16:33;16.10;99.90
15834;DHT22;8017;50.812;4.934;2022-10-17T02:19:45;16.10;99.90
15834;DHT22;8017;50.812;4.934;2022-10-17T02:22:54;16.00;99.90
15834;DHT22;8017;50.812;4.934;2022-10-17T02:26:04;16.00;99.90
15834;DHT22;8017;50.812;4.934;2022-10-17T02:29:12;16.10;99.90
15834;DHT22;8017;50.812;4.934;2022-10-17T02:32:20;16.10;99.90
15834;DHT22;8017;50.812;4.934;2022-10-17T02:35:30;16.20;99.90
15834;DHT22;8017;50.812;4.934;2022-10-17T02:38:33;16.20;99.90
15834;DHT22;8017;50.812;4.934;2022-10-17T02:41:37;16.20;99.90
15834;DHT22;8017;50.812;4.934;2022-10-17T02:44:43;16.10;99.90
15834;DHT22;8017;50.812;4.934;2022-10-17T02:47:53;16.20;99.90
15834;DHT22;8017;50.812;4.934;2022-10-17T02:51:03;16.20;99.90
15834;DHT22;8017;50.812;4.934;2022-10-17T02:54:13;16.30;99.90
15834;DHT22;8017;50.812;4.934;2022-10-17T02:57:22;16.30;99.90
15834;DHT22;8017;50.812;4.934;2022-10-17T03:00:27;16.30;99.90
15834;DHT22;8017;50.812;4.934;2022-10-17T03:03:30;16.30;99.90
15834;DHT22;8017;50.812;4.934;2022-10-17T03:06:33;16.40;99.90
15834;DHT22;8017;50.812;4.934;2022-10-17T03:09:35;16.40;99.90
15834;DHT22;8017;50.812;4.934;2022-10-17T03:12:37;16.40;99.90
15834;DHT22;8017;50.812;4.934;2022-10-17T03:15:39;16.50;99.90
15834;DHT22;8017;50.812;4.934;2022-10-17T03:18:41;16.50;99.90
15834;DHT22;8017;50.812;4.934;2022-10-17T03:21:44;16.50;99.90
15834;DHT22;8017;50.812;4.934;2022-10-17T03:24:46;16.50;99.90
15834;DHT22;8017;50.812;4.934;2022-10-17T03:27:48;16.50;99.90
15834;DHT22;8017;50.812;4.934;2022-10-17T03:30:50;16.60;99.90
15834;DHT22;8017;50.812;4.934;2022-10-17T03:33:52;16.60;99.90
15834;DHT22;8017;50.812;4.934;2022-10-17T03:36:55;16.60;99.90
15834;DHT22;8017;50.812;4.934;2022-10-17T03:39:57;16.60;99.90
15834;DHT22;8017;50.812;4.934;2022-10-17T03:42:59;16.60;99.90
15834;DHT22;8017;50.812;4.934;2022-10-17T03:46:01;16.70;99.90
15834;DHT22;8017;50.812;4.934;2022-10-17T03:49:03;16.70;99.90
15834;DHT22;8017;50.812;4.934;2022-10-17T03:52:10;16.60;99.90
15834;DHT22;8017;50.812;4.934;2022-10-17T03:55:12;16.60;99.90
15834;DHT22;8017;50.812;4.934;2022-10-17T03:58:13;16.60;99.90
15834;DHT22;8017;50.812;4.934;2022-10-17T04:01:16;16.50;99.90
15834;DHT22;8017;50.812;4.934;2022-10-17T04:04:18;16.50;99.90
15834;DHT22;8017;50.812;4.934;2022-10-17T04:07:22;16.40;99.90
15834;DHT22;8017;50.812;4.934;2022-10-17T04:10:24;16.40;99.90
15834;DHT22;8017;50.812;4.934;2022-10-17T04:13:26;16.40;99.90
15834;DHT22;8017;50.812;4.934;2022-10-17T04:16:28;16.40;99.90
15834;DHT22;8017;50.812;4.934;2022-10-17T04:19:30;16.50;99.90
15834;DHT22;8017;50.812;4.934;2022-10-17T04:22:34;16.50;99.90
15834;DHT22;8017;50.812;4.934;2022-10-17T04:25:36;16.60;99.90
15834;DHT22;8017;50.812;4.934;2022-10-17T04:28:38;16.70;99.90
15834;DHT22;8017;50.812;4.934;2022-10-17T04:31:40;16.70;99.90
15834;DHT22;8017;50.812;4.934;2022-10-17T04:34:42;16.50;99.90
15834;DHT22;8017;50.812;4.934;2022-10-17T04:37:45;16.60;99.90
15834;DHT22;8017;50.812;4.934;2022-10-17T04:40:47;16.60;99.90
15834;DHT22;8017;50.812;4.934;2022-10-17T04:43:48;16.50;99.90
15834;DHT22;8017;50.812;4.934;2022-10-17T04:46:50;16.50;99.90
15834;DHT22;8017;50.812;4.934;2022-10-17T04:49:52;16.50;99.90
15834;DHT22;8017;50.812;4.934;2022-10-17T04:52:55;16.50;99.90
15834;DHT22;8017;50.812;4.934;2022-10-17T04:55:57;16.60;99.90
15834;DHT22;8017;50.812;4.934;2022-10-17T04:58:59;16.70;99.90
15834;DHT22;8017;50.812;4.934;2022-10-17T05:02:01;16.70;99.90
15834;DHT22;8017;50.812;4.934;2022-10-17T05:05:03;16.60;99.90
15834;DHT22;8017;50.812;4.934;2022-10-17T05:08:08;16.60;99.90
15834;DHT22;8017;50.812;4.934;2022-10-17T05:11:15;16.50;99.90
15834;DHT22;8017;50.812;4.934;2022-10-17T05:14:18;16.60;99.90
15834;DHT22;8017;50.812;4.934;2022-10-17T05:17:20;16.70;99.90
15834;DHT22;8017;50.812;4.934;2022-10-17T05:20:21;16.60;99.90
15834;DHT22;8017;50.812;4.934;2022-10-17T05:23:25;16.60;99.90
15834;DHT22;8017;50.812;4.934;2022-10-17T05:26:27;16.60;99.90
15834;DHT22;8017;50.812;4.934;2022-10-17T05:29:29;16.50;99.90
15834;DHT22;8017;50.812;4.934;2022-10-17T05:32:30;16.40;99.90
15834;DHT22;8017;50.812;4.934;2022-10-17T05:35:32;16.40;99.90
15834;DHT22;8017;50.812;4.934;2022-10-17T05:38:35;16.30;99.90
15834;DHT22;8017;50.812;4.934;2022-10-17T05:41:37;16.40;99.90
15834;DHT22;8017;50.812;4.934;2022-10-17T05:44:39;16.30;99.90
15834;DHT22;8017;50.812;4.934;2022-10-17T05:47:41;16.30;99.90
15834;DHT22;8017;50.812;4.934;2022-10-17T05:50:43;16.30;99.90
15834;DHT22;8017;50.812;4.934;2022-10-17T05:53:46;16.40;99.90
15834;DHT22;8017;50.812;4.934;2022-10-17T05:56:50;16.30;99.90
15834;DHT22;8017;50.812;4.934;2022-10-17T05:59:52;16.20;99.90
15834;DHT22;8017;50.812;4.934;2022-10-17T06:02:54;16.40;99.90
15834;DHT22;8017;50.812;4.934;2022-10-17T06:06:01;16.40;99.90
15834;DHT22;8017;50.812;4.934;2022-10-17T06:09:05;16.50;99.90
15834;DHT22;8017;50.812;4.934;2022-10-17T06:12:08;16.60;99.90
15834;DHT22;8017;50.812;4.934;2022-10-17T06:15:10;16.70;99.90
15834;DHT22;8017;50.812;4.934;2022-10-17T06:18:12;16.70;99.90
15834;DHT22;8017;50.812;4.934;2022-10-17T06:21:18;16.80;99.90
15834;DHT22;8017;50.812;4.934;2022-10-17T06:24:21;16.80;99.90
15834;DHT22;8017;50.812;4.934;2022-10-17T06:27:23;17.00;99.90
15834;DHT22;8017;50.812;4.934;2022-10-17T06:30:25;17.00;99.90
15834;DHT22;8017;50.812;4.934;2022-10-17T06:33:27;17.10;99.90
15834;DHT22;8017;50.812;4.934;2022-10-17T06:36:29;17.10;99.90
15834;DHT22;8017;50.812;4.934;2022-10-17T06:39:33;17.10;99.90
15834;DHT22;8017;50.812;4.934;2022-10-17T06:42:35;17.10;99.90
15834;DHT22;8017;50.812;4.934;2022-10-17T06:45:38;17.00;99.90
15834;DHT22;8017;50.812;4.934;2022-10-17T06:48:40;17.10;99.90
15834;DHT22;8017;50.812;4.934;2022-10-17T06:51:42;17.30;99.90
15834;DHT22;8017;50.812;4.934;2022-10-17T06:54:45;17.30;99.90
15834;DHT22;8017;50.812;4.934;2022-10-17T06:57:47;17.60;99.90
15834;DHT22;8017;50.812;4.934;2022-10-17T07:00:49;17.70;99.90
15834;DHT22;8017;50.812;4.934;2022-10-17T07:03:50;17.90;99.90
15834;DHT22;8017;50.812;4.934;2022-10-17T07:06:53;18.20;99.90
15834;DHT22;8017;50.812;4.934;2022-10-17T07:09:56;18.30;99.90
15834;DHT22;8017;50.812;4.934;2022-10-17T07:12:58;18.40;99.90
15834;DHT22;8017;50.812;4.934;2022-10-17T07:15:59;18.50;99.90
15834;DHT22;8017;50.812;4.934;2022-10-17T07:19:01;18.80;99.90
15834;DHT22;8017;50.812;4.934;2022-10-17T07:22:03;18.80;99.90
15834;DHT22;8017;50.812;4.934;2022-10-17T07:25:08;18.90;99.90
15834;DHT22;8017;50.812;4.934;2022-10-17T07:28:10;18.80;99.90
15834;DHT22;8017;50.812;4.934;2022-10-17T07:31:15;18.60;99.90
15834;DHT22;8017;50.812;4.934;2022-10-17T07:34:17;18.70;99.90
15834;DHT22;8017;50.812;4.934;2022-10-17T07:37:19;18.60;99.90
15834;DHT22;8017;50.812;4.934;2022-10-17T07:40:22;18.60;99.90
15834;DHT22;8017;50.812;4.934;2022-10-17T07:43:25;18.60;99.90
15834;DHT22;8017;50.812;4.934;2022-10-17T07:46:27;18.80;99.90
15834;DHT22;8017;50.812;4.934;2022-10-17T07:49:29;18.80;99.90
15834;DHT22;8017;50.812;4.934;2022-10-17T07:52:31;18.90;99.90
15834;DHT22;8017;50.812;4.934;2022-10-17T07:55:35;18.80;99.90
15834;DHT22;8017;50.812;4.934;2022-10-17T07:58:37;18.80;99.90
15834;DHT22;8017;50.812;4.934;2022-10-17T08:01:39;18.90;99.90
15834;DHT22;8017;50.812;4.934;2022-10-17T08:04:41;18.90;99.90
15834;DHT22;8017;50.812;4.934;2022-10-17T08:07:43;18.80;99.90
15834;DHT22;8017;50.812;4.934;2022-10-17T08:10:46;18.70;99.90
15834;DHT22;8017;50.812;4.934;2022-10-17T08:13:48;18.70;99.90
15834;DHT22;8017;50.812;4.934;2022-10-17T08:16:52;18.60;99.90
15834;DHT22;8017;50.812;4.934;2022-10-17T08:19:54;18.60;99.90
15834;DHT22;8017;50.812;4.934;2022-10-17T08:22:56;18.80;99.90
15834;DHT22;8017;50.812;4.934;2022-10-17T08:26:00;18.80;99.90
15834;DHT22;8017;50.812;4.934;2022-10-17T08:29:02;18.70;99.90
15834;DHT22;8017;50.812;4.934;2022-10-17T08:32:04;18.70;99.90
15834;DHT22;8017;50.812;4.934;2022-10-17T08:35:07;18.60;99.90
15834;DHT22;8017;50.812;4.934;2022-10-17T08:38:09;18.60;99.90
15834;DHT22;8017;50.812;4.934;2022-10-17T08:41:21;18.50;99.90
15834;DHT22;8017;50.812;4.934;2022-10-17T08:44:38;18.50;99.90
15834;DHT22;8017;50.812;4.934;2022-10-17T08:47:45;18.50;99.90
15834;DHT22;8017;50.812;4.934;2022-10-17T08:50:50;18.50;99.90
15834;DHT22;8017;50.812;4.934;2022-10-17T08:53:56;18.60;99.90
15834;DHT22;8017;50.812;4.934;2022-10-17T08:57:01;18.70;99.90
15834;DHT22;8017;50.812;4.934;2022-10-17T09:00:14;18.80;99.90
15834;DHT22;8017;50.812;4.934;2022-10-17T09:03:30;19.00;99.90
15834;DHT22;8017;50.812;4.934;2022-10-17T09:06:38;19.20;99.90
15834;DHT22;8017;50.812;4.934;2022-10-17T09:09:48;19.20;99.90
15834;DHT22;8017;50.812;4.934;2022-10-17T09:13:04;19.30;99.90
15834;DHT22;8017;50.812;4.934;2022-10-17T09:16:16;19.10;99.90
15834;DHT22;8017;50.812;4.934;2022-10-17T09:19:23;19.10;99.90
15834;DHT22;8017;50.812;4.934;2022-10-17T09:22:29;19.30;99.90
15834;DHT22;8017;50.812;4.934;2022-10-17T09:25:49;19.40;99.90
15834;DHT22;8017;50.812;4.934;2022-10-17T09:28:58;19.40;99.90
15834;DHT22;8017;50.812;4.934;2022-10-17T09:32:03;19.30;99.90
15834;DHT22;8017;50.812;4.934;2022-10-17T09:35:11;19.20;99.90
15834;DHT22;8017;50.812;4.934;2022-10-17T09:38:16;19.00;99.90
15834;DHT22;8017;50.812;4.934;2022-10-17T09:41:20;18.90;99.90
15834;DHT22;8017;50.812;4.934;2022-10-17T09:44:28;18.90;99.90
15834;DHT22;8017;50.812;4.934;2022-10-17T09:47:33;18.80;99.90
15834;DHT22;8017;50.812;4.934;2022-10-17T09:50:39;18.60;99.90
15834;DHT22;8017;50.812;4.934;2022-10-17T09:53:44;18.60;99.90
15834;DHT22;8017;50.812;4.934;2022-10-17T09:56:57;18.80;99.90
15834;DHT22;8017;50.812;4.934;2022-10-17T10:00:04;18.90;99.90
15834;DHT22;8017;50.812;4.934;2022-10-17T10:03:17;18.90;99.90
15834;DHT22;8017;50.812;4.934;2022-10-17T10:06:20;19.00;99.90
15834;DHT22;8017;50.812;4.934;2022-10-17T10:09:24;19.10;99.90
15834;DHT22;8017;50.812;4.934;2022-10-17T10:12:30;19.30;99.90
15834;DHT22;8017;50.812;4.934;2022-10-17T10:15:36;19.40;99.90
15834;DHT22;8017;50.812;4.934;2022-10-17T10:18:38;19.60;99.90
15834;DHT22;8017;50.812;4.934;2022-10-17T10:21:54;19.70;99.90
15834;DHT22;8017;50.812;4.934;2022-10-17T10:25:13;19.70;99.90
15834;DHT22;8017;50.812;4.934;2022-10-17T10:28:16;19.80;99.90
15834;DHT22;8017;50.812;4.934;2022-10-17T10:31:25;19.90;99.90
15834;DHT22;8017;50.812;4.934;2022-10-17T10:34:29;20.00;99.90
15834;DHT22;8017;50.812;4.934;2022-10-17T10:37:37;20.10;99.90
15834;DHT22;8017;50.812;4.934;2022-10-17T10:40:45;19.90;99.90
15834;DHT22;8017;50.812;4.934;2022-10-17T10:43:50;20.10;99.90
15834;DHT22;8017;50.812;4.934;2022-10-17T10:47:08;20.10;99.90
15834;DHT22;8017;50.812;4.934;2022-10-17T10:50:21;20.20;99.90
15834;DHT22;8017;50.812;4.934;2022-10-17T10:53:35;20.50;99.90
15834;DHT22;8017;50.812;4.934;2022-10-17T10:56:42;20.60;99.90
15834;DHT22;8017;50.812;4.934;2022-10-17T10:59:51;20.60;99.90
15834;DHT22;8017;50.812;4.934;2022-10-17T11:03:05;20.40;99.90
15834;DHT22;8017;50.812;4.934;2022-10-17T11:06:13;20.40;99.90
15834;DHT22;8017;50.812;4.934;2022-10-17T11:09:33;20.50;99.90
15834;DHT22;8017;50.812;4.934;2022-10-17T11:12:40;20.60;99.90
15834;DHT22;8017;50.812;4.934;2022-10-17T11:15:48;20.40;99.90
15834;DHT22;8017;50.812;4.934;2022-10-17T11:18:59;20.20;99.90
15834;DHT22;8017;50.812;4.934;2022-10-17T11:22:10;20.10;99.90
15834;DHT22;8017;50.812;4.934;2022-10-17T11:25:22;20.00;99.90
15834;DHT22;8017;50.812;4.934;2022-10-17T11:28:28;20.00;99.90
15834;DHT22;8017;50.812;4.934;2022-10-17T11:31:36;20.00;99.90
15834;DHT22;8017;50.812;4.934;2022-10-17T11:34:44;20.00;99.90
15834;DHT22;8017;50.812;4.934;2022-10-17T11:37:50;20.10;99.90
15834;DHT22;8017;50.812;4.934;2022-10-17T11:40:56;20.10;99.90
15834;DHT22;8017;50.812;4.934;2022-10-17T11:44:04;20.00;99.90
15834;DHT22;8017;50.812;4.934;2022-10-17T11:47:28;20.00;99.90
15834;DHT22;8017;50.812;4.934;2022-10-17T11:50:34;19.90;99.90
15834;DHT22;8017;50.812;4.934;2022-10-17T11:53:47;19.90;99.90
15834;DHT22;8017;50.812;4.934;2022-10-17T11:56:57;19.90;99.90
15834;DHT22;8017;50.812;4.934;2022-10-17T12:00:17;19.90;99.90
15834;DHT22;8017;50.812;4.934;2022-10-17T12:03:38;19.80;99.90
15834;DHT22;8017;50.812;4.934;2022-10-17T12:07:01;19.80;99.90
15834;DHT22;8017;50.812;4.934;2022-10-17T12:10:19;19.60;99.90
15834;DHT22;8017;50.812;4.934;2022-10-17T12:13:47;19.50;99.90
15834;DHT22;8017;50.812;4.934;2022-10-17T12:16:49;19.50;99.90
15834;DHT22;8017;50.812;4.934;2022-10-17T12:19:51;19.40;99.90
15834;DHT22;8017;50.812;4.934;2022-10-17T12:22:58;19.40;99.90
15834;DHT22;8017;50.812;4.934;2022-10-17T12:26:02;19.40;99.90
15834;DHT22;8017;50.812;4.934;2022-10-17T12:29:24;19.40;99.90
15834;DHT22;8017;50.812;4.934;2022-10-17T12:32:27;19.40;99.90
15834;DHT22;8017;50.812;4.934;2022-10-17T12:35:30;19.50;99.90
15834;DHT22;8017;50.812;4.934;2022-10-17T12:38:33;19.50;99.90
15834;DHT22;8017;50.812;4.934;2022-10-17T12:41:53;19.40;99.90
15834;DHT22;8017;50.812;4.934;2022-10-17T12:44:55;19.30;99.90
15834;DHT22;8017;50.812;4.934;2022-10-17T12:47:57;19.30;99.90
15834;DHT22;8017;50.812;4.934;2022-10-17T12:51:00;19.30;99.90
15834;DHT22;8017;50.812;4.934;2022-10-17T12:54:10;19.20;99.90
15834;DHT22;8017;50.812;4.934;2022-10-17T12:57:16;19.20;99.90
15834;DHT22;8017;50.812;4.934;2022-10-17T13:00:24;19.20;99.90
15834;DHT22;8017;50.812;4.934;2022-10-17T13:03:31;19.30;99.90
15834;DHT22;8017;50.812;4.934;2022-10-17T13:06:37;19.40;99.90
15834;DHT22;8017;50.812;4.934;2022-10-17T13:09:43;19.50;99.90
15834;DHT22;8017;50.812;4.934;2022-10-17T13:12:45;19.60;99.90
15834;DHT22;8017;50.812;4.934;2022-10-17T13:15:49;19.50;99.90
15834;DHT22;8017;50.812;4.934;2022-10-17T13:18:52;19.50;99.90
15834;DHT22;8017;50.812;4.934;2022-10-17T13:21:55;19.30;99.90
15834;DHT22;8017;50.812;4.934;2022-10-17T13:25:07;19.20;99.90
15834;DHT22;8017;50.812;4.934;2022-10-17T13:28:12;19.20;99.90
15834;DHT22;8017;50.812;4.934;2022-10-17T13:31:27;19.10;99.90
15834;DHT22;8017;50.812;4.934;2022-10-17T13:34:32;19.10;99.90
15834;DHT22;8017;50.812;4.934;2022-10-17T13:37:35;19.10;99.90
15834;DHT22;8017;50.812;4.934;2022-10-17T13:40:40;19.10;99.90
15834;DHT22;8017;50.812;4.934;2022-10-17T13:43:43;19.10;99.90
15834;DHT22;8017;50.812;4.934;2022-10-17T13:46:46;19.10;99.90
15834;DHT22;8017;50.812;4.934;2022-10-17T13:49:48;19.00;99.90
15834;DHT22;8017;50.812;4.934;2022-10-17T13:53:14;19.00;99.90
15834;DHT22;8017;50.812;4.934;2022-10-17T13:56:19;19.20;99.90
15834;DHT22;8017;50.812;4.934;2022-10-17T13:59:30;19.30;99.90
15834;DHT22;8017;50.812;4.934;2022-10-17T14:02:34;19.30;99.90
15834;DHT22;8017;50.812;4.934;2022-10-17T14:06:03;19.40;99.90
15834;DHT22;8017;50.812;4.934;2022-10-17T14:09:06;19.50;99.90
15834;DHT22;8017;50.812;4.934;2022-10-17T14:12:18;19.50;99.90
15834;DHT22;8017;50.812;4.934;2022-10-17T14:15:24;19.50;99.90
15834;DHT22;8017;50.812;4.934;2022-10-17T14:18:28;19.40;99.90
15834;DHT22;8017;50.812;4.934;2022-10-17T14:21:31;19.40;99.90
15834;DHT22;8017;50.812;4.934;2022-10-17T14:24:35;19.30;99.90
15834;DHT22;8017;50.812;4.934;2022-10-17T14:27:53;19.20;99.90
15834;DHT22;8017;50.812;4.934;2022-10-17T14:31:17;19.10;99.90
15834;DHT22;8017;50.812;4.934;2022-10-17T14:34:25;19.10;99.90
15834;DHT22;8017;50.812;4.934;2022-10-17T14:37:33;19.20;99.90
15834;DHT22;8017;50.812;4.934;2022-10-17T14:40:36;19.30;99.90
15834;DHT22;8017;50.812;4.934;2022-10-17T14:43:40;19.50;99.90
15834;DHT22;8017;50.812;4.934;2022-10-17T14:46:44;19.40;99.90
15834;DHT22;8017;50.812;4.934;2022-10-17T14:49:50;19.50;99.90
15834;DHT22;8017;50.812;4.934;2022-10-17T14:53:00;19.70;99.90
15834;DHT22;8017;50.812;4.934;2022-10-17T14:56:04;19.60;99.90
15834;DHT22;8017;50.812;4.934;2022-10-17T14:59:21;19.60;99.90
15834;DHT22;8017;50.812;4.934;2022-10-17T15:02:26;19.50;99.90
15834;DHT22;8017;50.812;4.934;2022-10-17T15:05:28;19.60;99.90
15834;DHT22;8017;50.812;4.934;2022-10-17T15:08:30;19.50;99.90
15834;DHT22;8017;50.812;4.934;2022-10-17T15:11:32;19.60;99.90
15834;DHT22;8017;50.812;4.934;2022-10-17T15:14:35;19.60;99.90
15834;DHT22;8017;50.812;4.934;2022-10-17T15:17:37;19.50;99.90
15834;DHT22;8017;50.812;4.934;2022-10-17T15:20:39;19.40;99.90
15834;DHT22;8017;50.812;4.934;2022-10-17T15:23:41;19.50;99.90
15834;DHT22;8017;50.812;4.934;2022-10-17T15:26:43;19.40;99.90
15834;DHT22;8017;50.812;4.934;2022-10-17T15:29:47;19.40;99.90
15834;DHT22;8017;50.812;4.934;2022-10-17T15:32:49;19.30;99.90
15834;DHT22;8017;50.812;4.934;2022-10-17T15:35:51;19.20;99.90
15834;DHT22;8017;50.812;4.934;2022-10-17T15:38:55;19.00;99.90
15834;DHT22;8017;50.812;4.934;2022-10-17T15:41:57;18.90;99.90
15834;DHT22;8017;50.812;4.934;2022-10-17T15:45:00;18.70;99.90
15834;DHT22;8017;50.812;4.934;2022-10-17T15:48:05;18.60;99.90
15834;DHT22;8017;50.812;4.934;2022-10-17T15:51:07;18.60;99.90
15834;DHT22;8017;50.812;4.934;2022-10-17T15:54:09;18.50;99.90
15834;DHT22;8017;50.812;4.934;2022-10-17T15:57:16;18.60;99.90
15834;DHT22;8017;50.812;4.934;2022-10-17T16:00:21;18.60;99.90
15834;DHT22;8017;50.812;4.934;2022-10-17T16:03:23;18.50;99.90
15834;DHT22;8017;50.812;4.934;2022-10-17T16:06:26;18.40;99.90
15834;DHT22;8017;50.812;4.934;2022-10-17T16:09:27;18.30;99.90
15834;DHT22;8017;50.812;4.934;2022-10-17T16:12:29;18.40;99.90
15834;DHT22;8017;50.812;4.934;2022-10-17T16:15:37;18.30;99.90
15834;DHT22;8017;50.812;4.934;2022-10-17T16:18:39;18.20;99.90
15834;DHT22;8017;50.812;4.934;2022-10-17T16:21:41;18.20;99.90
15834;DHT22;8017;50.812;4.934;2022-10-17T16:24:43;18.20;99.90
15834;DHT22;8017;50.812;4.934;2022-10-17T16:27:46;18.20;99.90
15834;DHT22;8017;50.812;4.934;2022-10-17T16:30:49;18.10;99.90
15834;DHT22;8017;50.812;4.934;2022-10-17T16:33:53;18.10;99.90
15834;DHT22;8017;50.812;4.934;2022-10-17T16:36:55;17.90;99.90
15834;DHT22;8017;50.812;4.934;2022-10-17T16:39:57;17.80;99.90
15834;DHT22;8017;50.812;4.934;2022-10-17T16:43:00;17.70;99.90
15834;DHT22;8017;50.812;4.934;2022-10-17T16:46:03;17.70;99.90
15834;DHT22;8017;50.812;4.934;2022-10-17T16:49:06;17.60;99.90
15834;DHT22;8017;50.812;4.934;2022-10-17T16:52:08;17.50;99.90
15834;DHT22;8017;50.812;4.934;2022-10-17T16:55:10;17.50;99.90
15834;DHT22;8017;50.812;4.934;2022-10-17T16:58:12;17.40;99.90
15834;DHT22;8017;50.812;4.934;2022-10-17T17:01:16;17.40;99.90
15834;DHT22;8017;50.812;4.934;2022-10-17T17:04:19;17.40;99.90
15834;DHT22;8017;50.812;4.934;2022-10-17T17:07:21;17.30;99.90
15834;DHT22;8017;50.812;4.934;2022-10-17T17:10:23;17.10;99.90
15834;DHT22;8017;50.812;4.934;2022-10-17T17:13:27;17.00;99.90
15834;DHT22;8017;50.812;4.934;2022-10-17T17:16:32;16.90;99.90
15834;DHT22;8017;50.812;4.934;2022-10-17T17:19:34;16.90;99.90
15834;DHT22;8017;50.812;4.934;2022-10-17T17:22:35;16.90;99.90
15834;DHT22;8017;50.812;4.934;2022-10-17T17:25:37;16.90;99.90
15834;DHT22;8017;50.812;4.934;2022-10-17T17:28:40;16.70;99.90
15834;DHT22;8017;50.812;4.934;2022-10-17T17:31:43;16.80;99.90
15834;DHT22;8017;50.812;4.934;2022-10-17T17:34:45;16.80;99.90
15834;DHT22;8017;50.812;4.934;2022-10-17T17:37:47;16.80;99.90
15834;DHT22;8017;50.812;4.934;2022-10-17T17:40:49;16.90;99.90
15834;DHT22;8017;50.812;4.934;2022-10-17T17:43:52;16.90;99.90
15834;DHT22;8017;50.812;4.934;2022-10-17T17:46:56;16.80;99.90
15834;DHT22;8017;50.812;4.934;2022-10-17T17:49:58;16.70;99.90
15834;DHT22;8017;50.812;4.934;2022-10-17T17:53:00;16.60;99.90
15834;DHT22;8017;50.812;4.934;2022-10-17T17:56:03;16.80;99.90
15834;DHT22;8017;50.812;4.934;2022-10-17T17:59:06;16.90;99.90
15834;DHT22;8017;50.812;4.934;2022-10-17T18:02:10;16.80;99.90
15834;DHT22;8017;50.812;4.934;2022-10-17T18:05:11;16.80;99.90
15834;DHT22;8017;50.812;4.934;2022-10-17T18:08:13;16.70;99.90
15834;DHT22;8017;50.812;4.934;2022-10-17T18:11:15;16.60;99.90
15834;DHT22;8017;50.812;4.934;2022-10-17T18:14:17;16.60;99.90
15834;DHT22;8017;50.812;4.934;2022-10-17T18:17:24;16.60;99.90
15834;DHT22;8017;50.812;4.934;2022-10-17T18:20:26;16.60;99.90
15834;DHT22;8017;50.812;4.934;2022-10-17T18:23:28;16.50;99.90
15834;DHT22;8017;50.812;4.934;2022-10-17T18:26:30;16.50;99.90
15834;DHT22;8017;50.812;4.934;2022-10-17T18:29:32;16.40;99.90
15834;DHT22;8017;50.812;4.934;2022-10-17T18:32:35;16.40;99.90
15834;DHT22;8017;50.812;4.934;2022-10-17T18:35:37;16.50;99.90
15834;DHT22;8017;50.812;4.934;2022-10-17T18:38:39;16.40;99.90
15834;DHT22;8017;50.812;4.934;2022-10-17T18:41:41;16.40;99.90
15834;DHT22;8017;50.812;4.934;2022-10-17T18:44:43;16.40;99.90
15834;DHT22;8017;50.812;4.934;2022-10-17T18:47:46;16.50;99.90
15834;DHT22;8017;50.812;4.934;2022-10-17T18:50:52;16.50;99.90
15834;DHT22;8017;50.812;4.934;2022-10-17T18:53:56;16.50;99.90
15834;DHT22;8017;50.812;4.934;2022-10-17T18:56:58;16.40;99.90
15834;DHT22;8017;50.812;4.934;2022-10-17T19:00:00;16.40;99.90
15834;DHT22;8017;50.812;4.934;2022-10-17T19:03:03;16.40;99.90
15834;DHT22;8017;50.812;4.934;2022-10-17T19:06:07;16.30;99.90
15834;DHT22;8017;50.812;4.934;2022-10-17T19:09:11;16.30;99.90
15834;DHT22;8017;50.812;4.934;2022-10-17T19:12:13;16.40;99.90
15834;DHT22;8017;50.812;4.934;2022-10-17T19:15:15;16.30;99.90
15834;DHT22;8017;50.812;4.934;2022-10-17T19:18:18;16.20;99.90
15834;DHT22;8017;50.812;4.934;2022-10-17T19:21:20;16.30;99.90
15834;DHT22;8017;50.812;4.934;2022-10-17T19:24:23;16.20;99.90
15834;DHT22;8017;50.812;4.934;2022-10-17T19:27:25;16.20;99.90
15834;DHT22;8017;50.812;4.934;2022-10-17T19:30:27;16.20;99.90
15834;DHT22;8017;50.812;4.934;2022-10-17T19:33:32;16.10;99.90
15834;DHT22;8017;50.812;4.934;2022-10-17T19:36:34;16.20;99.90
15834;DHT22;8017;50.812;4.934;2022-10-17T19:39:36;16.20;99.90
15834;DHT22;8017;50.812;4.934;2022-10-17T19:42:38;16.20;99.90
15834;DHT22;8017;50.812;4.934;2022-10-17T19:45:40;16.20;99.90
15834;DHT22;8017;50.812;4.934;2022-10-17T19:48:43;16.10;99.90